createdAt,value
2018-08-18T00:01:19.360Z,71.31
2018-08-18T00:03:49.946Z,71.62
2018-08-18T00:06:19.008Z,71.92
2018-08-18T00:09:02.218Z,71.93
2018-08-18T00:11:31.932Z,71.47
2018-08-18T00:14:00.836Z,72.34
2018-08-18T00:16:29.602Z,72.55
2018-08-18T00:19:00.147Z,72.82
2018-08-18T00:21:31.658Z,72.87
2018-08-18T00:24:06.298Z,73.11
2018-08-18T00:26:35.067Z,73.76
2018-08-18T00:29:04.308Z,73.32
2018-08-18T00:31:33.156Z,73.78
2018-08-18T00:34:01.907Z,73.57
2018-08-18T00:36:32.680Z,74.14
2018-08-18T00:39:01.643Z,73.33
2018-08-18T00:41:31.751Z,73.40
2018-08-18T00:44:00.989Z,73.01
2018-08-18T00:46:32.185Z,73.86
2018-08-18T00:49:01.971Z,74.08
2018-08-18T00:51:34.653Z,74.39
2018-08-18T00:54:05.640Z,74.71
2018-08-18T00:56:36.657Z,74.67
2018-08-18T00:59:05.517Z,74.85
2018-08-18T01:01:34.382Z,74.66
2018-08-18T01:04:08.267Z,75.12
2018-08-18T01:06:41.320Z,74.61
2018-08-18T01:09:11.814Z,75.23
2018-08-18T01:11:41.283Z,75.07
2018-08-18T01:14:16.841Z,74.75
2018-08-18T01:16:52.696Z,75.51
2018-08-18T01:19:22.812Z,75.60
2018-08-18T01:21:56.664Z,76.28
2018-08-18T01:24:25.696Z,76.15
2018-08-18T01:26:54.642Z,75.86
2018-08-18T01:29:23.682Z,76.21
2018-08-18T01:31:52.427Z,76.04
2018-08-18T01:34:21.518Z,76.57
2018-08-18T01:36:50.348Z,76.15
2018-08-18T01:39:21.393Z,76.45
2018-08-18T01:41:50.103Z,76.38
2018-08-18T01:44:25.258Z,76.77
2018-08-18T01:46:55.348Z,76.63
2018-08-18T01:49:27.239Z,76.66
2018-08-18T01:51:57.336Z,77.15
2018-08-18T01:54:26.825Z,76.62
2018-08-18T01:57:02.247Z,76.98
2018-08-18T01:59:31.051Z,77.28
2018-08-18T02:02:00.439Z,76.99
2018-08-18T02:04:29.548Z,76.75
2018-08-18T02:07:24.043Z,77.10
2018-08-18T02:09:53.043Z,77.23
2018-08-18T02:12:22.687Z,77.21
2018-08-18T02:14:51.907Z,77.76
2018-08-18T02:17:24.036Z,78.03
2018-08-18T02:19:53.530Z,78.28
2018-08-18T02:22:23.088Z,78.68
2018-08-18T02:24:51.910Z,77.98
2018-08-18T02:27:20.751Z,78.03
2018-08-18T02:30:01.560Z,77.85
2018-08-18T02:32:31.723Z,78.01
2018-08-18T02:35:00.489Z,78.67
2018-08-18T02:37:30.124Z,78.43
2018-08-18T02:39:59.983Z,78.74
2018-08-18T02:42:28.748Z,78.93
2018-08-18T02:44:57.535Z,79.22
2018-08-18T02:47:27.108Z,79.52
2018-08-18T02:49:56.394Z,79.22
2018-08-18T02:52:26.899Z,79.80
2018-08-18T02:55:03.488Z,79.26
2018-08-18T02:57:37.815Z,79.65
2018-08-18T03:00:11.820Z,79.70
2018-08-18T03:02:41.175Z,79.46
2018-08-18T03:05:09.967Z,80.62
2018-08-18T03:07:43.448Z,80.25
2018-08-18T03:10:17.420Z,80.71
2018-08-18T03:12:47.292Z,80.05
2018-08-18T03:16:23.810Z,80.12
2018-08-18T03:18:53.782Z,80.01
2018-08-18T03:21:28.755Z,81.09
2018-08-18T03:24:08.465Z,80.28
2018-08-18T03:26:42.466Z,80.07
2018-08-18T03:29:11.860Z,80.28
2018-08-18T03:31:41.158Z,79.91
2018-08-18T03:34:10.481Z,80.72
2018-08-18T03:36:40.695Z,81.31
2018-08-18T03:39:22.832Z,80.74
2018-08-18T03:41:53.422Z,80.97
2018-08-18T03:44:22.219Z,81.25
2018-08-18T03:46:51.822Z,81.74
2018-08-18T03:49:21.408Z,82.03
2018-08-18T03:51:51.958Z,81.29
2018-08-18T03:54:21.172Z,81.31
2018-08-18T03:56:50.617Z,80.77
2018-08-18T03:59:20.133Z,79.99
2018-08-18T04:01:54.963Z,80.48
2018-08-18T04:04:25.536Z,80.02
2018-08-18T04:06:56.238Z,79.80
2018-08-18T04:09:29.943Z,79.19
2018-08-18T04:12:01.008Z,79.10
2018-08-18T04:14:33.876Z,78.93
2018-08-18T04:17:03.415Z,78.42
2018-08-18T04:19:32.180Z,78.79
2018-08-18T04:22:01.042Z,78.46
2018-08-18T04:24:34.978Z,78.54
2018-08-18T04:27:03.897Z,77.95
2018-08-18T04:29:32.637Z,78.33
2018-08-18T04:32:02.155Z,77.50
2018-08-18T04:34:30.899Z,77.77
2018-08-18T04:37:01.239Z,77.88
2018-08-18T04:39:30.717Z,77.22
2018-08-18T04:41:59.427Z,77.40
2018-08-18T04:44:28.147Z,77.06
2018-08-18T04:46:58.006Z,77.82
2018-08-18T04:49:27.240Z,76.88
2018-08-18T04:51:56.639Z,77.18
2018-08-18T04:54:25.799Z,76.52
2018-08-18T04:56:55.416Z,76.91
2018-08-18T04:59:24.269Z,76.70
2018-08-18T05:01:52.990Z,76.63
2018-08-18T05:04:22.296Z,75.85
2018-08-18T05:06:51.107Z,75.74
2018-08-18T05:09:19.928Z,76.08
2018-08-18T05:11:49.910Z,75.53
2018-08-18T05:14:18.886Z,74.94
2018-08-18T05:16:49.292Z,75.52
2018-08-18T05:19:18.358Z,74.96
2018-08-18T05:21:48.267Z,74.25
2018-08-18T05:24:25.542Z,74.41
2018-08-18T05:26:55.542Z,74.80
2018-08-18T05:29:24.249Z,73.31
2018-08-18T05:31:54.296Z,72.94
2018-08-18T05:34:23.022Z,73.16
2018-08-18T05:36:51.808Z,73.06
2018-08-18T05:39:21.836Z,73.04
2018-08-18T05:41:50.729Z,73.14
2018-08-18T05:44:20.530Z,72.64
2018-08-18T05:46:50.383Z,71.87
2018-08-18T05:49:20.223Z,70.85
2018-08-18T05:51:50.896Z,71.73
2018-08-18T05:54:24.014Z,71.50
2018-08-18T05:56:53.434Z,69.61
2018-08-18T05:59:22.222Z,70.69
2018-08-18T06:01:51.199Z,70.51
2018-08-18T06:04:21.675Z,68.87
2018-08-18T06:06:51.413Z,68.97
2018-08-18T06:09:21.217Z,68.84
2018-08-18T06:11:50.603Z,67.77
2018-08-18T06:14:19.921Z,68.23
2018-08-18T06:16:49.527Z,68.06
2018-08-18T06:19:18.704Z,67.43
2018-08-18T06:21:47.751Z,67.99
2018-08-18T06:24:17.673Z,67.04
2018-08-18T06:26:46.732Z,66.61
2018-08-18T06:29:17.118Z,66.83
2018-08-18T06:31:58.463Z,66.39
2018-08-18T06:34:29.029Z,65.62
2018-08-18T06:36:57.936Z,66.20
2018-08-18T06:39:28.411Z,65.61
2018-08-18T06:41:57.367Z,65.08
2018-08-18T06:44:27.907Z,65.31
2018-08-18T06:46:57.863Z,64.39
2018-08-18T06:49:26.917Z,65.18
2018-08-18T06:51:56.628Z,65.16
2018-08-18T06:54:30.661Z,64.68
2018-08-18T06:56:59.907Z,64.89
2018-08-18T06:59:28.700Z,64.70
2018-08-18T07:01:57.518Z,63.33
2018-08-18T07:04:27.546Z,62.65
2018-08-18T07:06:56.493Z,61.90
2018-08-18T07:09:25.225Z,62.60
2018-08-18T07:11:54.029Z,61.49
2018-08-18T07:14:22.735Z,61.68
2018-08-18T07:16:52.658Z,61.06
2018-08-18T07:19:21.439Z,59.28
2018-08-18T07:21:50.257Z,59.58
2018-08-18T07:24:19.094Z,57.72
2018-08-18T07:26:49.095Z,58.95
2018-08-18T07:29:18.156Z,58.36
2018-08-18T07:31:47.335Z,58.16
2018-08-18T07:34:16.306Z,58.32
2018-08-18T07:36:45.510Z,57.57
2018-08-18T07:39:15.345Z,57.22
2018-08-18T07:41:44.223Z,56.88
2018-08-18T07:44:13.055Z,56.24
2018-08-18T07:46:42.724Z,55.47
2018-08-18T07:49:12.148Z,54.11
2018-08-18T07:51:41.803Z,54.34
2018-08-18T07:54:11.240Z,54.50
2018-08-18T07:56:40.480Z,54.49
2018-08-18T07:59:09.301Z,52.73
2018-08-18T08:01:38.727Z,53.53
2018-08-18T08:04:08.172Z,52.22
2018-08-18T08:06:36.949Z,51.38
2018-08-18T08:09:06.349Z,50.98
2018-08-18T08:11:35.312Z,51.61
2018-08-18T08:14:04.211Z,51.42
2018-08-18T08:16:33.712Z,50.95
2018-08-18T08:19:02.496Z,50.63
2018-08-18T08:21:31.274Z,49.74
2018-08-18T08:24:00.104Z,49.32
2018-08-18T08:26:29.072Z,49.44
2018-08-18T08:28:58.137Z,48.67
2018-08-18T08:31:26.930Z,47.47
2018-08-18T08:33:55.752Z,47.10
2018-08-18T08:36:24.547Z,47.26
2018-08-18T08:38:57.308Z,46.57
2018-08-18T08:41:28.592Z,46.58
2018-08-18T08:43:57.459Z,46.77
2018-08-18T08:46:27.015Z,46.54
2018-08-18T08:48:58.463Z,46.84
2018-08-18T08:51:28.122Z,46.12
2018-08-18T08:53:59.227Z,45.72
2018-08-18T08:56:47.247Z,45.00
2018-08-18T08:59:16.169Z,43.99
2018-08-18T09:01:44.991Z,43.65
2018-08-18T09:04:14.421Z,44.71
2018-08-18T09:06:48.171Z,45.10
2018-08-18T09:09:18.049Z,43.76
2018-08-18T09:11:47.043Z,44.84
2018-08-18T09:14:16.787Z,43.49
2018-08-18T09:16:46.596Z,44.66
2018-08-18T09:19:15.490Z,43.66
2018-08-18T09:21:49.504Z,43.57
2018-08-18T09:24:19.237Z,42.48
2018-08-18T09:26:54.849Z,43.52
2018-08-18T09:29:24.074Z,43.89
2018-08-18T09:31:55.897Z,44.50
2018-08-18T09:34:24.662Z,42.44
2018-08-18T09:36:53.774Z,41.96
2018-08-18T09:39:34.264Z,42.76
2018-08-18T09:42:08.400Z,43.72
2018-08-18T09:44:44.537Z,43.11
2018-08-18T09:47:14.811Z,43.91
2018-08-18T09:49:43.834Z,44.59
2018-08-18T09:54:41.761Z,44.98
2018-08-18T09:57:11.544Z,45.27
2018-08-18T09:59:40.375Z,43.58
2018-08-18T10:02:11.348Z,42.71
2018-08-18T10:04:40.157Z,42.51
2018-08-18T10:07:09.015Z,43.80
2018-08-18T10:09:37.824Z,45.02
2018-08-18T10:12:07.557Z,44.34
2018-08-18T10:14:36.677Z,43.58
2018-08-18T10:17:05.931Z,41.79
2018-08-18T10:19:34.751Z,40.39
2018-08-18T10:22:03.624Z,39.63
2018-08-18T10:24:32.390Z,40.24
2018-08-18T10:27:05.677Z,40.27
2018-08-18T10:29:34.664Z,38.28
2018-08-18T10:32:03.503Z,39.25
2018-08-18T10:34:33.479Z,38.72
2018-08-18T10:37:06.236Z,38.54
2018-08-18T10:39:36.706Z,38.74
2018-08-18T10:42:11.876Z,39.22
2018-08-18T10:44:47.155Z,39.25
2018-08-18T10:47:19.184Z,40.00
2018-08-18T10:49:58.872Z,39.32
2018-08-18T10:52:39.880Z,40.00
2018-08-18T10:55:10.735Z,38.76
2018-08-18T10:57:52.428Z,38.59
2018-08-18T11:00:23.303Z,38.66
2018-08-18T11:02:53.915Z,36.83
2018-08-18T11:05:23.594Z,37.87
2018-08-18T11:07:58.427Z,36.96
2018-08-18T11:10:29.112Z,37.71
2018-08-18T11:12:58.076Z,37.66
2018-08-18T11:15:27.652Z,38.40
2018-08-18T11:17:57.015Z,36.56
2018-08-18T11:20:27.142Z,36.85
2018-08-18T11:23:00.823Z,35.94
2018-08-18T11:25:32.139Z,36.80
2018-08-18T11:28:01.219Z,37.11
2018-08-18T11:30:30.204Z,37.17
2018-08-18T11:32:59.784Z,35.55
2018-08-18T11:35:29.020Z,35.76
2018-08-18T11:38:03.927Z,36.64
2018-08-18T11:40:33.508Z,35.70
2018-08-18T11:43:03.442Z,36.13
2018-08-18T11:45:33.566Z,36.24
2018-08-18T11:48:26.173Z,36.50
2018-08-18T11:50:55.993Z,35.77
2018-08-18T11:53:25.511Z,36.40
2018-08-18T11:55:55.061Z,35.95
2018-08-18T11:58:24.889Z,36.30
2018-08-18T12:00:58.909Z,35.38
2018-08-18T12:03:31.761Z,35.58
2018-08-18T12:06:02.644Z,35.39
2018-08-18T12:08:32.841Z,36.07
2018-08-18T12:11:03.945Z,34.86
2018-08-18T12:13:38.003Z,35.77
2018-08-18T12:16:11.012Z,35.63
2018-08-18T12:18:41.160Z,36.79
2018-08-18T12:21:10.132Z,35.62
2018-08-18T12:23:43.549Z,35.77
2018-08-18T12:26:22.405Z,35.31
2018-08-18T12:28:55.204Z,36.36
2018-08-18T12:31:25.271Z,36.39
2018-08-18T12:33:54.118Z,35.62
2018-08-18T12:36:23.412Z,35.84
2018-08-18T12:38:54.813Z,35.68
2018-08-18T12:41:24.267Z,35.20
2018-08-18T12:43:55.076Z,36.59
2018-08-18T12:46:29.558Z,35.79
2018-08-18T12:48:58.331Z,36.96
2018-08-18T12:51:27.688Z,37.47
2018-08-18T12:53:57.886Z,36.83
2018-08-18T12:56:28.672Z,37.54
2018-08-18T12:58:57.459Z,37.73
2018-08-18T13:01:38.332Z,37.89
2018-08-18T13:04:10.612Z,37.56
2018-08-18T13:06:41.896Z,38.63
2018-08-18T13:09:12.409Z,38.10
2018-08-18T13:11:41.840Z,37.85
2018-08-18T13:14:10.742Z,37.65
2018-08-18T13:16:40.272Z,38.27
2018-08-18T13:19:09.595Z,38.68
2018-08-18T13:21:38.343Z,39.13
2018-08-18T13:24:07.199Z,38.70
2018-08-18T13:26:35.960Z,39.36
2018-08-18T13:29:04.903Z,39.41
2018-08-18T13:31:43.708Z,40.73
2018-08-18T13:34:14.779Z,40.29
2018-08-18T13:36:44.335Z,40.47
2018-08-18T13:39:17.465Z,41.36
2018-08-18T13:41:48.250Z,41.35
2018-08-18T13:44:27.532Z,41.50
2018-08-18T13:46:56.964Z,42.12
2018-08-18T13:49:26.643Z,41.97
2018-08-18T13:51:56.131Z,41.40
2018-08-18T13:54:25.194Z,41.82
2018-08-18T13:56:54.781Z,42.55
2018-08-18T13:59:43.250Z,42.68
2018-08-18T14:02:12.623Z,42.70
2018-08-18T14:04:42.297Z,43.95
2018-08-18T14:07:11.670Z,44.20
2018-08-18T14:09:44.408Z,44.70
2018-08-18T14:12:15.598Z,43.88
2018-08-18T14:14:46.899Z,44.64
2018-08-18T14:17:17.030Z,44.09
2018-08-18T14:19:45.928Z,44.66
2018-08-18T14:22:18.246Z,44.87
2018-08-18T14:24:47.489Z,45.60
2018-08-18T14:27:19.115Z,45.11
2018-08-18T14:29:48.567Z,44.97
2018-08-18T14:32:25.348Z,44.63
2018-08-18T14:35:07.039Z,45.21
2018-08-18T14:37:38.456Z,44.16
2018-08-18T14:40:11.332Z,44.66
2018-08-18T14:42:40.474Z,44.51
2018-08-18T14:45:12.048Z,44.56
2018-08-18T14:47:41.557Z,44.18
2018-08-18T14:50:24.180Z,44.79
2018-08-18T14:52:53.518Z,45.21
2018-08-18T14:55:22.252Z,44.59
2018-08-18T14:57:56.933Z,43.70
2018-08-18T15:00:25.802Z,43.59
2018-08-18T15:02:55.344Z,43.46
2018-08-18T15:05:24.167Z,44.06
2018-08-18T15:07:55.535Z,44.22
2018-08-18T15:10:34.568Z,45.56
2018-08-18T15:13:04.203Z,45.89
2018-08-18T15:15:34.301Z,45.90
2018-08-18T15:18:06.376Z,46.20
2018-08-18T15:20:36.289Z,45.53
2018-08-18T15:23:05.991Z,46.11
2018-08-18T15:25:35.683Z,46.16
2018-08-18T15:28:05.911Z,46.58
2018-08-18T15:30:35.972Z,46.64
2018-08-18T15:33:04.968Z,47.77
2018-08-18T15:35:36.465Z,47.42
2018-08-18T15:38:06.050Z,47.86
2018-08-18T15:40:37.008Z,48.87
2018-08-18T15:43:05.910Z,47.89
2018-08-18T15:45:44.662Z,48.75
2018-08-18T15:48:14.447Z,48.79
2018-08-18T15:50:43.254Z,48.24
2018-08-18T15:53:12.498Z,48.18
2018-08-18T15:55:42.021Z,48.18
2018-08-18T15:58:11.387Z,48.73
2018-08-18T16:00:40.488Z,47.91
2018-08-18T16:03:10.165Z,47.89
2018-08-18T16:05:38.928Z,48.05
2018-08-18T16:08:07.716Z,48.48
2018-08-18T16:10:36.589Z,48.63
2018-08-18T16:13:05.473Z,48.35
2018-08-18T16:15:34.832Z,48.70
2018-08-18T16:18:04.488Z,48.98
2018-08-18T16:20:33.997Z,49.21
2018-08-18T16:23:03.296Z,49.46
2018-08-18T16:25:36.479Z,50.26
2018-08-18T16:28:06.319Z,49.60
2018-08-18T16:30:35.476Z,50.89
2018-08-18T16:33:11.658Z,51.02
2018-08-18T16:35:41.859Z,51.07
2018-08-18T16:38:11.215Z,50.40
2018-08-18T16:40:40.859Z,51.29
2018-08-18T16:43:11.064Z,50.77
2018-08-18T16:45:39.955Z,51.63
2018-08-18T16:48:11.119Z,51.88
2018-08-18T16:50:40.862Z,51.74
2018-08-18T16:53:11.490Z,51.55
2018-08-18T16:55:44.530Z,52.72
2018-08-18T16:58:14.029Z,52.21
2018-08-18T17:00:58.694Z,52.30
2018-08-18T17:03:34.957Z,52.67
2018-08-18T17:06:04.968Z,52.79
2018-08-18T17:08:33.762Z,53.61
2018-08-18T17:11:02.697Z,54.04
2018-08-18T17:13:34.775Z,54.30
2018-08-18T17:16:04.986Z,54.67
2018-08-18T17:18:34.669Z,54.79
2018-08-18T17:21:05.743Z,55.25
2018-08-18T17:23:35.776Z,54.55
2018-08-18T17:26:04.559Z,54.95
2018-08-18T17:28:33.836Z,54.74
2018-08-18T17:31:03.918Z,55.32
2018-08-18T17:33:33.066Z,54.98
2018-08-18T17:36:01.923Z,55.79
2018-08-18T17:38:30.847Z,56.31
2018-08-18T17:41:00.679Z,56.57
2018-08-18T17:43:29.528Z,55.98
2018-08-18T17:46:00.131Z,56.49
2018-08-18T17:48:29.991Z,55.86
2018-08-18T17:50:58.829Z,56.06
2018-08-18T17:53:28.196Z,55.96
2018-08-18T17:56:03.781Z,56.89
2018-08-18T17:58:32.631Z,56.35
2018-08-18T18:01:01.909Z,56.73
2018-08-18T18:03:31.429Z,57.18
2018-08-18T18:06:00.156Z,57.88
2018-08-18T18:08:28.883Z,57.54
2018-08-18T18:10:57.829Z,58.08
2018-08-18T18:13:27.614Z,57.98
2018-08-18T18:15:57.221Z,57.79
2018-08-18T18:18:46.496Z,58.27
2018-08-18T18:21:15.413Z,58.34
2018-08-18T18:23:44.238Z,58.78
2018-08-18T18:26:13.048Z,58.52
2018-08-18T18:28:41.945Z,58.36
2018-08-18T18:31:10.695Z,58.79
2018-08-18T18:33:39.552Z,59.32
2018-08-18T18:36:08.331Z,59.03
2018-08-18T18:38:52.512Z,59.15
2018-08-18T18:41:22.199Z,59.54
2018-08-18T18:43:59.790Z,59.74
2018-08-18T18:46:29.292Z,59.55
2018-08-18T18:48:58.216Z,59.39
2018-08-18T18:51:27.941Z,60.16
2018-08-18T18:53:58.092Z,60.57
2018-08-18T18:56:27.476Z,61.23
2018-08-18T18:58:56.270Z,61.38
2018-08-18T19:01:25.039Z,61.27
2018-08-18T19:03:54.326Z,62.02
2018-08-18T19:06:23.087Z,62.29
2018-08-18T19:08:59.977Z,62.56
2018-08-18T19:11:28.994Z,61.72
2018-08-18T19:13:58.062Z,63.03
2018-08-18T19:16:27.391Z,63.17
2018-08-18T19:18:56.708Z,63.55
2018-08-18T19:21:34.220Z,63.92
2018-08-18T19:24:08.875Z,63.69
2018-08-18T19:26:56.187Z,63.34
2018-08-18T19:29:26.377Z,64.11
2018-08-18T19:31:57.919Z,63.61
2018-08-18T19:34:26.680Z,63.61
2018-08-18T19:37:09.606Z,63.88
2018-08-18T19:39:39.829Z,64.86
2018-08-18T19:42:13.943Z,64.92
2018-08-18T19:44:44.893Z,64.70
2018-08-18T19:47:19.352Z,64.17
2018-08-18T19:49:48.626Z,65.00
2018-08-18T19:52:21.598Z,65.24
2018-08-18T19:54:51.347Z,64.96
2018-08-18T19:57:37.948Z,65.19
2018-08-18T20:00:17.055Z,64.77
2018-08-18T20:03:10.126Z,65.62
2018-08-18T20:05:38.963Z,65.87
2018-08-18T20:08:07.828Z,65.12
2018-08-18T20:10:43.579Z,65.38
2018-08-18T20:13:12.975Z,65.66
2018-08-18T20:15:44.869Z,65.31
2018-08-18T20:18:13.633Z,66.24
2018-08-18T20:20:42.348Z,66.25
2018-08-18T20:23:11.225Z,65.66
2018-08-18T20:25:40.063Z,66.54
2018-08-18T20:28:08.940Z,65.96
2018-08-18T20:30:37.733Z,65.86
2018-08-18T20:33:07.308Z,66.64
2018-08-18T20:35:36.409Z,66.23
2018-08-18T20:38:05.199Z,66.43
2018-08-18T20:40:34.904Z,66.08
2018-08-18T20:43:03.650Z,66.78
2018-08-18T20:45:52.918Z,66.56
2018-08-18T20:51:28.280Z,67.93
2018-08-18T20:53:57.712Z,67.61
2018-08-18T20:56:26.988Z,67.65
2018-08-18T20:58:55.728Z,67.60
2018-08-18T21:01:31.012Z,68.57
2018-08-18T21:04:00.620Z,68.49
2018-08-18T21:06:29.604Z,68.06
2018-08-18T21:08:58.384Z,69.23
2018-08-18T21:11:27.185Z,69.03
2018-08-18T21:13:57.390Z,69.08
2018-08-18T21:16:26.925Z,69.46
2018-08-18T21:18:55.663Z,69.36
2018-08-18T21:21:35.703Z,69.25
2018-08-18T21:24:04.704Z,68.98
2018-08-18T21:26:34.103Z,69.03
2018-08-18T21:29:02.981Z,68.91
2018-08-18T21:31:33.342Z,68.98
2018-08-18T21:34:03.612Z,68.88
2018-08-18T21:36:32.741Z,69.71
2018-08-18T21:39:03.974Z,69.95
2018-08-18T21:41:33.758Z,70.33
2018-08-18T21:44:02.481Z,70.40
2018-08-18T21:46:31.999Z,70.52
2018-08-18T21:49:02.236Z,69.90
2018-08-18T21:51:31.898Z,70.17
2018-08-18T21:54:01.155Z,71.28
2018-08-18T21:56:36.799Z,70.80
2018-08-18T21:59:06.960Z,71.32
2018-08-18T22:01:35.874Z,72.06
2018-08-18T22:04:05.470Z,72.14
2018-08-18T22:06:34.305Z,71.65
2018-08-18T22:09:21.992Z,71.61
2018-08-18T22:11:50.917Z,72.25
2018-08-18T22:14:20.239Z,72.09
2018-08-18T22:16:54.743Z,72.62
2018-08-18T22:19:24.661Z,72.29
2018-08-18T22:21:53.474Z,72.40
2018-08-18T22:24:22.463Z,72.50
2018-08-18T22:26:51.459Z,72.32
2018-08-18T22:29:24.037Z,73.12
2018-08-18T22:31:53.040Z,72.64
2018-08-18T22:34:22.416Z,72.80
2018-08-18T22:36:53.904Z,72.55
2018-08-18T22:39:23.607Z,72.54
2018-08-18T22:41:52.350Z,72.39
2018-08-18T22:44:21.181Z,73.17
2018-08-18T22:46:50.323Z,73.01
2018-08-18T22:49:19.918Z,72.92
2018-08-18T22:51:49.431Z,72.91
2018-08-18T22:54:19.112Z,72.28
2018-08-18T22:56:54.272Z,72.30
2018-08-18T22:59:22.987Z,71.99
2018-08-18T23:01:51.720Z,72.55
2018-08-18T23:04:40.506Z,72.09
2018-08-18T23:07:09.519Z,72.50
2018-08-18T23:09:38.282Z,71.67
2018-08-18T23:12:08.033Z,72.26
2018-08-18T23:14:38.091Z,71.60
2018-08-18T23:17:09.059Z,72.34
2018-08-18T23:19:37.989Z,71.39
2018-08-18T23:22:06.960Z,71.91
2018-08-18T23:24:38.697Z,72.24
2018-08-18T23:27:07.596Z,71.34
2018-08-18T23:29:36.440Z,71.79
2018-08-18T23:32:13.327Z,71.62
2018-08-18T23:34:42.172Z,71.21
2018-08-18T23:37:16.259Z,71.45
2018-08-18T23:39:45.759Z,71.11
2018-08-18T23:42:17.853Z,70.93
2018-08-18T23:44:47.409Z,71.04
2018-08-18T23:47:17.367Z,71.04
2018-08-18T23:49:46.611Z,70.47
2018-08-18T23:52:16.339Z,70.23
2018-08-18T23:54:45.247Z,70.28
2018-08-18T23:57:16.698Z,70.22
2018-08-18T23:59:46.435Z,70.57
